Time;durP1;ratioP1;P1;durP2;ratioP2;P2;SDS_P1;SDS_P2;PMS_P1;PMS_P2;Temp;Humidity;BMP_temperature;BMP_pressure;BME280_temperature;BME280_humidity;BME280_pressure;Samples;Min_cycle;Max_cycle;Signal;HPM_P1;HPM_P2
2021/12/18 00:02:25;;;;;;;12.77;9.47;;;0.10;88.60;;;;;;6167917;28;20292;-66
2021/12/18 00:05:26;;;;;;;14.27;10.33;;;0.00;88.40;;;;;;6200167;28;20191;-66
2021/12/18 00:08:27;;;;;;;13.00;9.20;;;0.00;88.90;;;;;;6199823;28;20242;-66
2021/12/18 00:11:28;;;;;;;13.67;8.67;;;0.00;88.70;;;;;;6199293;28;20206;-67
2021/12/18 00:14:29;;;;;;;13.03;8.63;;;0.00;88.60;;;;;;6200330;28;20187;-67
2021/12/18 00:17:30;;;;;;;13.47;9.33;;;0.00;88.40;;;;;;6199467;28;20301;-67
2021/12/18 00:20:31;;;;;;;14.03;9.20;;;0.00;88.60;;;;;;6183492;28;20204;-66
2021/12/18 00:23:32;;;;;;;11.93;8.13;;;0.00;89.00;;;;;;6200184;28;20180;-66
2021/12/18 00:26:33;;;;;;;15.00;9.53;;;0.00;89.00;;;;;;6200291;28;20197;-66
2021/12/18 00:29:34;;;;;;;14.50;10.87;;;0.00;88.60;;;;;;6208252;28;20222;-67
2021/12/18 00:32:35;;;;;;;13.53;8.57;;;0.00;88.80;;;;;;6212688;28;20212;-65
2021/12/18 00:35:36;;;;;;;11.27;8.07;;;0.00;88.80;;;;;;6212458;28;20191;-65
2021/12/18 00:38:39;;;;;;;10.90;8.17;;;0.00;88.60;;;;;;6223162;28;20191;-65
2021/12/18 00:42:07;;;;;;;12.50;8.47;;;0.00;88.50;;;;;;6211914;28;20690;-65
2021/12/18 00:45:11;;;;;;;14.17;9.13;;;0.00;88.50;;;;;;6223845;28;20198;-65
2021/12/18 00:48:11;;;;;;;13.40;8.20;;;-3276.70;88.70;;;;;;6217108;28;20184;-68
2021/12/18 00:51:12;;;;;;;11.77;8.40;;;-3276.70;88.50;;;;;;6220560;28;20220;-69
2021/12/18 00:54:13;;;;;;;11.83;8.37;;;-3276.70;88.60;;;;;;6235861;28;20191;-67
2021/12/18 00:57:14;;;;;;;12.43;8.27;;;-3276.70;88.10;;;;;;6228359;28;20190;-68
2021/12/18 01:00:21;;;;;;;14.27;9.90;;;-3276.60;88.40;;;;;;6244447;28;20250;-69
2021/12/18 01:03:22;;;;;;;11.87;9.17;;;-3276.60;88.60;;;;;;6260920;28;20614;-68
2021/12/18 01:06:24;;;;;;;16.93;9.47;;;-3276.60;88.20;;;;;;6233890;28;20200;-68
2021/12/18 01:09:50;;;;;;;12.63;9.17;;;-3276.50;88.60;;;;;;6227897;28;20233;-68
2021/12/18 01:12:53;;;;;;;13.97;8.63;;;-3276.50;88.50;;;;;;6211417;28;20192;-68
2021/12/18 01:16:03;;;;;;;13.13;8.07;;;-3276.50;88.80;;;;;;6225578;28;20192;-67
2021/12/18 01:25:43;;;;;;;11.47;9.00;;;-3276.40;89.00;;;;;;6241849;28;20223;-67
2021/12/18 01:28:43;;;;;;;12.03;8.57;;;-3276.40;89.10;;;;;;6210786;28;20203;-67
2021/12/18 01:31:44;;;;;;;15.30;9.13;;;-3276.50;89.30;;;;;;6227901;28;20255;-67
2021/12/18 01:34:45;;;;;;;14.07;10.23;;;-3276.50;89.20;;;;;;6205998;28;20191;-67
2021/12/18 01:37:48;;;;;;;21.07;12.20;;;-3276.50;89.40;;;;;;6234483;28;20191;-68
2021/12/18 01:40:50;;;;;;;19.70;11.30;;;-3276.50;89.80;;;;;;6213269;28;20192;-68
2021/12/18 01:53:48;;;;;;;20.97;11.00;;;-3276.60;89.10;;;;;;6249214;28;20179;-68
2021/12/18 01:56:49;;;;;;;17.60;10.73;;;-3276.60;89.20;;;;;;6234527;28;20194;-68
2021/12/18 01:59:51;;;;;;;15.83;9.90;;;-3276.60;89.10;;;;;;6246116;28;20235;-68
2021/12/18 02:02:52;;;;;;;14.57;9.53;;;-3276.60;89.00;;;;;;6210584;28;20194;-68
2021/12/18 02:05:54;;;;;;;12.60;6.50;;;-3276.50;89.10;;;;;;6226281;28;20221;-69
2021/12/18 02:08:55;;;;;;;11.70;8.40;;;-3276.40;88.20;;;;;;6210380;28;20202;-68
2021/12/18 02:11:58;;;;;;;12.73;8.60;;;-3276.30;88.30;;;;;;6194145;28;20179;-68
2021/12/18 02:21:22;;;;;;;15.43;9.47;;;-3276.20;89.40;;;;;;6241977;28;20204;-67
2021/12/18 02:24:26;;;;;;;14.90;9.50;;;-3276.20;88.70;;;;;;6226181;28;20195;-68
2021/12/18 02:27:27;;;;;;;14.80;9.10;;;-3276.20;89.00;;;;;;6210140;28;20188;-68
2021/12/18 02:30:31;;;;;;;14.40;8.70;;;-3276.20;89.20;;;;;;6161036;28;20248;-68
2021/12/18 02:33:32;;;;;;;14.50;8.37;;;-3276.20;89.00;;;;;;6201869;28;20402;-69
2021/12/18 02:36:32;;;;;;;13.73;9.60;;;-3276.20;89.20;;;;;;6203537;28;20211;-69
2021/12/18 02:42:38;;;;;;;14.90;9.27;;;-3276.20;89.00;;;;;;6225282;28;20188;-69
2021/12/18 02:45:39;;;;;;;13.27;8.90;;;-3276.20;88.80;;;;;;6194212;28;20195;-69
2021/12/18 02:48:41;;;;;;;15.57;8.53;;;-3276.20;88.80;;;;;;6224866;28;20251;-68
2021/12/18 02:51:43;;;;;;;11.63;8.80;;;-3276.30;88.70;;;;;;6199424;28;20271;-68
2021/12/18 02:54:44;;;;;;;14.90;9.43;;;-3276.20;88.80;;;;;;6237467;28;20191;-67
2021/12/18 02:57:45;;;;;;;14.90;9.33;;;-3276.20;88.70;;;;;;6225423;28;20195;-67
2021/12/18 03:00:46;;;;;;;16.87;10.30;;;-3276.20;88.60;;;;;;6213819;28;20262;-68
2021/12/18 03:03:48;;;;;;;19.27;10.37;;;-3276.20;88.50;;;;;;6231305;28;20204;-67
2021/12/18 03:06:54;;;;;;;13.00;9.10;;;-3276.10;88.80;;;;;;6218293;28;20188;-67
2021/12/18 03:26:07;;;;;;;16.60;9.93;;;-3275.80;88.80;;;;;;6212194;28;20203;-67
2021/12/18 03:29:08;;;;;;;16.67;9.77;;;-3275.80;89.10;;;;;;6207928;28;20272;-67
2021/12/18 03:32:09;;;;;;;14.70;9.43;;;-3275.80;89.00;;;;;;6224847;28;20188;-67
2021/12/18 03:35:11;;;;;;;17.17;9.37;;;-3275.80;88.80;;;;;;6218650;28;20177;-68
2021/12/18 03:38:12;;;;;;;14.80;9.00;;;-3275.80;88.20;;;;;;6221152;28;20196;-68
2021/12/18 03:41:13;;;;;;;15.50;9.43;;;-3275.70;87.80;;;;;;6217462;28;20196;-67
2021/12/18 03:44:14;;;;;;;14.97;9.30;;;-3275.70;87.70;;;;;;6208180;28;20184;-67
2021/12/18 03:47:14;;;;;;;15.40;9.40;;;-3275.60;87.80;;;;;;6208964;28;20263;-67
2021/12/18 03:50:16;;;;;;;15.00;10.00;;;-3275.60;88.60;;;;;;6205408;28;20276;-67
2021/12/18 03:53:17;;;;;;;14.17;9.27;;;-3275.60;88.50;;;;;;6218728;28;20316;-67
2021/12/18 03:56:19;;;;;;;16.20;10.37;;;-3275.60;88.90;;;;;;6184254;28;20188;-67
2021/12/18 03:59:20;;;;;;;16.43;10.40;;;-3275.60;89.10;;;;;;6215272;28;20267;-67
2021/12/18 04:02:21;;;;;;;14.37;10.53;;;-3275.70;89.40;;;;;;6198686;28;20196;-67
2021/12/18 04:05:21;;;;;;;14.63;9.60;;;-3275.80;89.60;;;;;;6219420;28;20205;-67
2021/12/18 04:08:22;;;;;;;18.53;11.13;;;-3275.80;89.20;;;;;;6226800;28;20653;-67
2021/12/18 04:11:23;;;;;;;17.47;9.80;;;-3275.90;89.40;;;;;;6209013;28;20267;-67
2021/12/18 04:14:24;;;;;;;15.80;9.90;;;-3275.90;88.80;;;;;;6205066;28;20279;-67
2021/12/18 04:17:25;;;;;;;19.13;10.53;;;-3275.90;89.30;;;;;;6223640;28;20296;-68
2021/12/18 04:20:26;;;;;;;14.13;10.23;;;-3275.90;88.90;;;;;;6191270;28;20210;-68
2021/12/18 04:23:27;;;;;;;17.43;9.97;;;-3275.90;88.90;;;;;;6191387;28;20199;-69
2021/12/18 04:26:28;;;;;;;15.90;8.83;;;-3275.70;88.30;;;;;;6207579;28;20199;-68
2021/12/18 04:29:29;;;;;;;15.83;8.57;;;-3275.70;88.90;;;;;;6191523;28;20223;-68
2021/12/18 04:32:29;;;;;;;17.27;9.60;;;-3275.80;89.10;;;;;;6234323;28;20190;-69
2021/12/18 04:35:30;;;;;;;12.53;8.60;;;-3275.80;88.60;;;;;;6235516;28;20183;-69
2021/12/18 04:38:31;;;;;;;16.23;9.53;;;-3275.70;89.00;;;;;;6210032;28;20194;-69
2021/12/18 04:41:42;;;;;;;15.87;8.37;;;-3275.60;88.70;;;;;;6215490;28;20179;-69
2021/12/18 04:44:43;;;;;;;14.80;8.60;;;-3275.60;88.60;;;;;;6199131;28;20192;-69
2021/12/18 04:47:44;;;;;;;12.90;8.40;;;-3275.60;89.10;;;;;;6222629;28;20205;-68
2021/12/18 04:50:45;;;;;;;10.40;7.90;;;-3275.60;88.90;;;;;;6231529;28;20227;-67
2021/12/18 04:53:46;;;;;;;13.23;7.87;;;-3275.60;88.80;;;;;;6213716;28;20197;-67
2021/12/18 04:56:47;;;;;;;13.37;9.03;;;-3275.60;88.60;;;;;;6199039;28;20195;-67
2021/12/18 04:59:48;;;;;;;14.63;8.97;;;-3275.50;89.10;;;;;;6215246;28;20232;-68
2021/12/18 05:02:51;;;;;;;13.57;8.30;;;-3275.60;89.20;;;;;;6215366;28;20284;-67
2021/12/18 05:05:52;;;;;;;14.87;7.97;;;-3275.60;89.00;;;;;;6202190;28;20226;-66
2021/12/18 05:08:53;;;;;;;15.43;7.57;;;-3275.60;89.00;;;;;;6214700;28;20202;-67
2021/12/18 05:11:55;;;;;;;13.93;7.70;;;-3275.60;88.60;;;;;;6215557;28;20191;-67
2021/12/18 05:14:56;;;;;;;16.27;7.07;;;-3275.60;88.70;;;;;;6194771;28;20227;-67
2021/12/18 05:17:57;;;;;;;9.83;7.27;;;-3275.60;88.30;;;;;;6218358;28;20192;-67
2021/12/18 05:20:58;;;;;;;12.50;8.47;;;-3275.50;88.50;;;;;;6222345;28;20313;-67
2021/12/18 05:23:59;;;;;;;15.53;8.70;;;-3275.50;88.70;;;;;;6202201;28;20195;-67
2021/12/18 05:27:00;;;;;;;13.63;8.73;;;-3275.60;89.10;;;;;;6235606;28;20204;-68
2021/12/18 05:30:00;;;;;;;15.93;8.73;;;-3275.70;89.00;;;;;;6194918;28;20224;-68
2021/12/18 05:33:01;;;;;;;15.70;11.20;;;-3275.70;88.50;;;;;;6195089;28;20205;-68
2021/12/18 05:36:13;;;;;;;13.80;9.77;;;-3275.70;88.50;;;;;;6214270;28;20718;-67
2021/12/18 05:39:14;;;;;;;16.60;9.73;;;-3275.70;88.60;;;;;;6214109;28;20223;-67
2021/12/18 05:42:15;;;;;;;16.70;9.70;;;-3275.70;88.40;;;;;;6227635;28;20340;-67
2021/12/18 05:45:17;;;;;;;16.80;9.30;;;-3275.50;88.30;;;;;;6226596;28;20195;-67
2021/12/18 05:48:18;;;;;;;14.20;9.57;;;-3275.60;89.10;;;;;;6201597;28;20194;-67
2021/12/18 05:51:19;;;;;;;14.83;8.53;;;-3275.50;88.70;;;;;;6210769;28;20311;-67
2021/12/18 05:54:20;;;;;;;15.43;8.23;;;-3275.60;88.40;;;;;;6194501;28;20180;-67
2021/12/18 05:57:21;;;;;;;15.17;7.93;;;-3275.50;88.00;;;;;;6226849;28;20202;-67
2021/12/18 06:00:22;;;;;;;12.63;7.23;;;-3275.50;88.00;;;;;;6193265;28;20243;-67
2021/12/18 06:03:23;;;;;;;10.07;6.90;;;-3275.50;87.60;;;;;;6227299;28;20230;-65
2021/12/18 06:06:25;;;;;;;11.27;7.70;;;-3275.50;87.40;;;;;;6208676;28;20238;-67
2021/12/18 06:09:26;;;;;;;14.80;8.23;;;-3275.40;87.50;;;;;;6232357;28;20240;-66
2021/12/18 06:12:26;;;;;;;14.57;10.00;;;-3275.30;87.70;;;;;;6194422;28;20202;-65
2021/12/18 06:15:28;;;;;;;14.10;9.83;;;-3275.20;87.70;;;;;;6225675;28;20199;-66
2021/12/18 06:18:28;;;;;;;19.43;10.60;;;-3275.20;88.00;;;;;;6234142;28;20200;-66
2021/12/18 06:21:29;;;;;;;19.13;12.63;;;-3275.20;88.20;;;;;;6233415;28;20259;-67
2021/12/18 06:24:30;;;;;;;16.93;11.20;;;-3275.20;88.20;;;;;;6210820;28;20195;-68
2021/12/18 06:27:31;;;;;;;15.33;11.30;;;-3275.20;88.30;;;;;;6180673;28;20195;-67
2021/12/18 06:30:32;;;;;;;16.97;10.50;;;-3275.20;88.10;;;;;;6198947;28;20348;-67
2021/12/18 06:33:33;;;;;;;21.20;14.20;;;-3275.20;88.20;;;;;;6211044;28;20195;-69
2021/12/18 06:36:34;;;;;;;30.03;17.90;;;-3275.20;88.00;;;;;;6213436;28;20194;-67
2021/12/18 06:39:35;;;;;;;22.80;17.23;;;-3275.20;88.10;;;;;;6200022;28;20291;-68
2021/12/18 06:42:36;;;;;;;17.67;12.07;;;-3275.20;88.30;;;;;;6241019;28;20195;-68
2021/12/18 06:45:37;;;;;;;16.57;10.27;;;-3275.30;88.20;;;;;;6204656;28;20209;-68
2021/12/18 06:48:37;;;;;;;13.20;8.27;;;-3275.40;88.60;;;;;;6205487;28;20195;-67
2021/12/18 06:51:39;;;;;;;9.50;7.43;;;-3275.50;88.50;;;;;;6204774;28;20258;-68
2021/12/18 06:54:40;;;;;;;13.73;7.60;;;-3275.50;88.10;;;;;;6217799;28;20188;-68
2021/12/18 06:57:42;;;;;;;14.07;7.57;;;-3275.60;88.50;;;;;;6205898;28;20243;-68
2021/12/18 07:00:43;;;;;;;9.73;6.00;;;-3275.70;87.60;;;;;;6239971;28;20231;-65
2021/12/18 07:03:43;;;;;;;11.97;7.47;;;-3275.70;87.50;;;;;;6208386;28;20202;-68
2021/12/18 07:06:45;;;;;;;10.13;7.47;;;-3275.70;87.30;;;;;;6220834;28;20194;-66
2021/12/18 07:09:45;;;;;;;11.13;6.17;;;-3275.80;86.70;;;;;;6197037;28;20311;-67
2021/12/18 07:12:46;;;;;;;12.83;6.73;;;-3275.80;86.30;;;;;;6192139;28;20217;-65
2021/12/18 07:15:47;;;;;;;12.17;6.80;;;-3275.80;86.70;;;;;;6222798;28;20246;-68
2021/12/18 07:18:51;;;;;;;8.30;5.50;;;-3275.80;86.30;;;;;;6210341;28;20601;-67
2021/12/18 07:21:52;;;;;;;8.93;6.50;;;-3275.90;86.20;;;;;;6218209;28;20184;-67
2021/12/18 07:24:53;;;;;;;10.10;6.20;;;-3275.80;86.50;;;;;;6225054;28;20207;-67
2021/12/18 07:27:54;;;;;;;10.13;6.97;;;-3275.80;86.70;;;;;;6208778;28;20290;-67
2021/12/18 07:30:55;;;;;;;11.37;6.53;;;-3275.80;86.70;;;;;;6238151;28;20258;-67
2021/12/18 07:33:56;;;;;;;12.03;7.27;;;-3275.80;86.40;;;;;;6226652;28;20191;-67
2021/12/18 07:36:57;;;;;;;8.70;6.13;;;-3275.80;86.80;;;;;;6213018;28;20188;-67
2021/12/18 07:39:58;;;;;;;11.30;7.53;;;-3275.90;86.00;;;;;;6207902;28;20199;-67
2021/12/18 07:42:59;;;;;;;11.47;7.13;;;-3276.00;85.70;;;;;;6203079;28;20198;-68
2021/12/18 07:46:00;;;;;;;12.30;6.83;;;-3276.10;86.10;;;;;;6259258;28;20192;-67
2021/12/18 07:49:02;;;;;;;13.93;7.50;;;-3276.20;86.10;;;;;;6207377;28;20237;-68
2021/12/18 07:52:04;;;;;;;14.93;8.07;;;-3276.20;86.10;;;;;;6210094;28;20263;-67
2021/12/18 07:55:05;;;;;;;10.37;6.97;;;-3276.30;86.00;;;;;;6234704;28;20216;-68
2021/12/18 07:58:06;;;;;;;9.77;6.47;;;-3276.30;86.70;;;;;;6231211;28;20199;-67
2021/12/18 08:01:07;;;;;;;11.00;5.43;;;-3276.40;85.90;;;;;;6205058;28;20218;-67
2021/12/18 08:04:08;;;;;;;8.27;5.63;;;-3276.70;84.00;;;;;;6218000;28;20196;-68
2021/12/18 08:07:09;;;;;;;9.50;5.30;;;0.00;82.20;;;;;;6215341;28;20194;-68
2021/12/18 08:10:10;;;;;;;10.07;6.43;;;0.10;82.50;;;;;;6216749;28;20322;-67
2021/12/18 08:13:11;;;;;;;9.60;5.70;;;0.20;81.80;;;;;;6211144;28;20198;-67
2021/12/18 08:16:12;;;;;;;10.53;5.90;;;0.20;82.90;;;;;;6232202;28;20268;-67
2021/12/18 08:19:12;;;;;;;9.40;6.23;;;0.30;81.60;;;;;;6190019;28;20198;-67
2021/12/18 08:22:13;;;;;;;9.37;5.90;;;0.40;81.40;;;;;;6226158;28;20226;-67
2021/12/18 08:25:14;;;;;;;7.90;5.50;;;0.50;81.90;;;;;;6245040;28;20662;-67
2021/12/18 08:28:15;;;;;;;11.27;5.13;;;0.60;80.60;;;;;;6221530;28;20186;-67
2021/12/18 08:31:16;;;;;;;8.37;5.67;;;0.70;78.50;;;;;;6231435;28;20273;-67
2021/12/18 08:34:16;;;;;;;8.97;5.10;;;0.80;80.70;;;;;;6191606;28;20195;-67
2021/12/18 08:37:20;;;;;;;5.90;4.60;;;0.90;80.10;;;;;;6216442;28;20229;-67
2021/12/18 08:40:22;;;;;;;7.40;4.97;;;1.00;77.70;;;;;;6241026;28;20199;-67
2021/12/18 08:43:23;;;;;;;7.93;4.93;;;1.30;74.00;;;;;;6215295;28;20183;-67
2021/12/18 08:46:24;;;;;;;7.67;4.73;;;1.50;75.00;;;;;;6210329;28;20207;-67
2021/12/18 08:49:26;;;;;;;7.53;4.63;;;1.60;74.20;;;;;;6209216;28;20229;-67
2021/12/18 08:52:27;;;;;;;5.93;3.73;;;1.70;74.30;;;;;;6247637;28;20440;-67
2021/12/18 08:55:28;;;;;;;4.47;3.47;;;1.80;71.50;;;;;;6243153;28;20182;-68
2021/12/18 08:58:28;;;;;;;5.63;4.00;;;2.00;72.10;;;;;;6234300;28;20244;-67
2021/12/18 09:01:30;;;;;;;5.73;3.37;;;2.00;74.70;;;;;;6215035;28;20193;-67
2021/12/18 09:04:31;;;;;;;4.93;3.23;;;2.10;71.30;;;;;;6212678;28;20223;-67
2021/12/18 09:07:31;;;;;;;5.00;3.60;;;2.30;71.20;;;;;;6210284;28;20198;-66
2021/12/18 09:10:32;;;;;;;6.67;3.40;;;2.30;70.30;;;;;;6226175;28;20272;-66
2021/12/18 09:13:33;;;;;;;7.07;3.87;;;2.50;70.60;;;;;;6227454;28;20195;-66
2021/12/18 09:16:34;;;;;;;8.20;3.87;;;2.50;71.90;;;;;;6209800;28;20259;-67
2021/12/18 09:19:35;;;;;;;4.70;3.20;;;2.60;71.10;;;;;;6227152;28;20295;-66
2021/12/18 09:22:37;;;;;;;5.17;3.07;;;2.60;72.10;;;;;;6210887;28;20195;-66
2021/12/18 09:25:38;;;;;;;5.17;3.23;;;2.60;70.80;;;;;;6227630;28;20222;-67
2021/12/18 09:28:39;;;;;;;2.37;2.07;;;2.70;70.00;;;;;;6233516;28;20232;-67
2021/12/18 09:31:40;;;;;;;3.50;2.13;;;2.90;64.30;;;;;;6247406;28;20225;-68
2021/12/18 09:34:41;;;;;;;1.67;1.40;;;3.40;58.40;;;;;;6207382;28;20191;-68
2021/12/18 09:37:42;;;;;;;1.63;1.43;;;4.10;54.70;;;;;;6227651;28;20210;-67
2021/12/18 09:40:43;;;;;;;2.07;1.77;;;4.30;56.50;;;;;;6227832;28;20188;-67
2021/12/18 09:43:44;;;;;;;1.53;1.30;;;4.70;52.80;;;;;;6214671;28;20255;-67
2021/12/18 09:46:45;;;;;;;1.87;1.63;;;5.10;49.40;;;;;;6243552;28;20202;-66
2021/12/18 09:49:46;;;;;;;1.73;1.50;;;5.30;49.90;;;;;;6203217;28;20310;-66
2021/12/18 09:52:47;;;;;;;1.50;1.40;;;5.30;49.40;;;;;;6237992;28;20193;-66
2021/12/18 09:55:48;;;;;;;1.27;1.17;;;5.40;49.40;;;;;;6195311;28;20200;-66
2021/12/18 09:58:49;;;;;;;2.40;1.67;;;5.50;47.50;;;;;;6226813;28;20259;-66
2021/12/18 10:01:53;;;;;;;1.70;1.33;;;5.70;47.50;;;;;;6226410;28;20229;-66
2021/12/18 10:04:54;;;;;;;3.43;1.77;;;5.70;46.60;;;;;;6218824;28;20206;-66
2021/12/18 10:08:15;;;;;;;2.57;2.00;;;5.70;48.20;;;;;;6210619;28;20215;-66
2021/12/18 10:11:18;;;;;;;4.20;1.93;;;5.70;47.00;;;;;;6207839;28;20230;-66
2021/12/18 10:14:30;;;;;;;3.07;1.47;;;5.80;46.80;;;;;;6230133;28;20206;-66
2021/12/18 10:17:38;;;;;;;3.47;1.47;;;5.80;46.50;;;;;;6239855;28;20195;-66
2021/12/18 10:20:39;;;;;;;6.30;2.03;;;6.10;44.90;;;;;;6246060;28;20197;-66
2021/12/18 10:23:45;;;;;;;3.27;2.03;;;6.20;44.80;;;;;;6219659;28;20201;-66
2021/12/18 10:26:46;;;;;;;2.87;1.70;;;6.10;44.70;;;;;;6199957;28;20238;-66
2021/12/18 10:29:48;;;;;;;1.67;1.53;;;6.10;48.10;;;;;;6208068;28;20226;-66
2021/12/18 10:33:07;;;;;;;1.80;1.37;;;6.30;44.10;;;;;;6230964;28;20185;-66
2021/12/18 10:36:14;;;;;;;2.40;1.13;;;6.50;43.20;;;;;;6232119;28;20195;-65
2021/12/18 10:39:19;;;;;;;1.40;1.07;;;6.70;42.40;;;;;;6247674;28;20195;-66
2021/12/18 10:42:31;;;;;;;2.10;1.70;;;6.70;42.60;;;;;;6213469;28;20249;-66
2021/12/18 10:45:34;;;;;;;3.10;1.50;;;6.80;41.70;;;;;;6200616;28;20226;-66
2021/12/18 10:48:35;;;;;;;2.40;1.80;;;6.80;42.00;;;;;;6243444;28;20209;-66
2021/12/18 10:51:37;;;;;;;2.40;1.50;;;6.80;41.10;;;;;;6213995;28;20323;-66
2021/12/18 10:54:38;;;;;;;3.20;1.10;;;6.80;42.10;;;;;;6225342;28;20198;-66
2021/12/18 10:57:53;;;;;;;2.50;1.30;;;6.80;41.10;;;;;;6224132;28;20198;-66
2021/12/18 11:01:06;;;;;;;3.30;1.40;;;6.80;42.80;;;;;;6223736;28;20246;-66
2021/12/18 11:04:06;;;;;;;1.80;1.40;;;6.90;40.80;;;;;;6228101;28;20273;-66
2021/12/18 11:07:22;;;;;;;4.67;1.50;;;6.90;41.80;;;;;;6234294;28;20264;-66
2021/12/18 11:10:42;;;;;;;1.67;1.20;;;7.00;41.50;;;;;;6245472;28;20211;-66
2021/12/18 11:13:48;;;;;;;3.70;1.23;;;7.10;41.70;;;;;;6244657;28;20226;-66
2021/12/18 11:17:00;;;;;;;1.33;1.00;;;7.20;41.50;;;;;;6208912;28;20199;-66
2021/12/18 11:20:01;;;;;;;2.20;1.50;;;7.40;41.10;;;;;;6223101;28;20195;-66
2021/12/18 11:23:02;;;;;;;1.53;1.10;;;7.60;38.10;;;;;;6229981;28;20297;-66
2021/12/18 11:26:03;;;;;;;1.93;1.37;;;7.70;39.80;;;;;;6244772;28;20244;-66
2021/12/18 11:29:05;;;;;;;1.10;0.90;;;7.70;40.20;;;;;;6213034;28;20204;-66
2021/12/18 11:32:30;;;;;;;2.03;1.17;;;7.70;39.00;;;;;;6195774;28;20226;-66
2021/12/18 11:35:30;;;;;;;2.13;0.90;;;7.80;37.00;;;;;;6235523;28;20210;-66
2021/12/18 11:38:33;;;;;;;0.87;0.87;;;7.90;38.10;;;;;;6232656;28;20194;-66
2021/12/18 11:41:34;;;;;;;1.23;0.80;;;8.00;36.40;;;;;;6229864;28;20226;-66
2021/12/18 11:44:41;;;;;;;2.20;1.07;;;8.20;37.30;;;;;;6221466;28;20681;-66
2021/12/18 11:47:53;;;;;;;1.10;1.00;;;8.10;35.70;;;;;;6223017;28;20241;-66
2021/12/18 11:50:54;;;;;;;1.57;1.10;;;8.20;36.40;;;;;;6228394;28;20223;-66
2021/12/18 11:53:55;;;;;;;4.47;1.20;;;8.30;36.30;;;;;;6222945;28;20186;-66
2021/12/18 11:56:56;;;;;;;1.50;1.00;;;8.30;36.70;;;;;;6216653;28;20195;-66
2021/12/18 11:59:56;;;;;;;4.73;2.10;;;8.40;37.30;;;;;;6199890;28;20246;-66
2021/12/18 12:02:59;;;;;;;5.37;2.97;;;8.60;41.20;;;;;;6232591;28;20212;-68
2021/12/18 12:06:02;;;;;;;5.33;2.83;;;8.80;41.50;;;;;;6209427;28;20194;-68
2021/12/18 12:09:38;;;;;;;8.80;4.13;;;8.90;42.60;;;;;;6215748;28;20654;-67
2021/12/18 12:12:57;;;;;;;7.60;5.67;;;9.00;43.30;;;;;;6228536;28;20192;-67
2021/12/18 12:15:57;;;;;;;9.63;6.17;;;9.20;45.20;;;;;;6227961;28;20191;-68
2021/12/18 12:19:06;;;;;;;11.73;6.27;;;9.00;47.20;;;;;;6205578;28;20183;-66
2021/12/18 12:22:12;;;;;;;8.50;5.73;;;8.70;52.00;;;;;;6244206;28;20197;-67
2021/12/18 12:25:30;;;;;;;10.90;7.13;;;8.60;50.20;;;;;;6247582;28;20228;-66
2021/12/18 12:28:31;;;;;;;11.53;7.23;;;8.50;51.50;;;;;;6234538;28;20199;-67
2021/12/18 12:31:33;;;;;;;8.40;6.20;;;8.50;52.20;;;;;;6208796;28;20211;-67
2021/12/18 12:34:37;;;;;;;9.40;6.20;;;8.30;53.10;;;;;;6191224;28;20206;-67
2021/12/18 12:37:48;;;;;;;12.57;6.57;;;8.30;53.40;;;;;;6224253;28;20278;-67
2021/12/18 12:40:49;;;;;;;10.47;6.60;;;8.20;53.70;;;;;;6224092;28;20206;-67
2021/12/18 12:43:50;;;;;;;8.70;6.23;;;8.10;54.70;;;;;;6207822;28;20199;-67
2021/12/18 12:47:15;;;;;;;7.83;6.50;;;8.10;55.90;;;;;;6207270;28;20179;-67
2021/12/18 12:50:16;;;;;;;9.57;6.53;;;8.00;55.20;;;;;;6195536;28;20211;-65
2021/12/18 12:53:17;;;;;;;8.10;5.53;;;7.70;55.40;;;;;;6239446;28;20607;-66
2021/12/18 12:56:20;;;;;;;6.67;4.93;;;7.80;57.60;;;;;;6223586;28;20207;-67
2021/12/18 12:59:24;;;;;;;6.20;4.47;;;7.80;56.90;;;;;;6218895;28;20239;-67
2021/12/18 13:02:28;;;;;;;9.10;4.40;;;7.90;54.30;;;;;;6207299;28;20188;-67
2021/12/18 13:05:29;;;;;;;8.57;4.33;;;7.90;53.40;;;;;;6212678;28;20196;-65
2021/12/18 13:08:33;;;;;;;4.70;3.77;;;7.80;52.80;;;;;;6240169;28;20183;-68
2021/12/18 13:11:35;;;;;;;8.40;4.70;;;7.70;52.20;;;;;;6224452;28;20655;-69
2021/12/18 13:14:37;;;;;;;7.03;4.73;;;7.60;52.70;;;;;;6237259;28;20283;-68
2021/12/18 13:17:38;;;;;;;7.17;4.40;;;7.40;53.50;;;;;;6230148;28;20207;-67
2021/12/18 13:20:55;;;;;;;5.47;4.53;;;7.30;52.90;;;;;;6209352;28;20625;-67
2021/12/18 13:24:00;;;;;;;7.00;5.33;;;7.30;54.80;;;;;;6225916;28;20714;-67
2021/12/18 13:27:10;;;;;;;6.97;5.03;;;7.20;53.00;;;;;;6190141;28;20192;-66
2021/12/18 13:30:19;;;;;;;8.50;5.80;;;7.10;55.20;;;;;;6182668;28;20215;-67
2021/12/18 13:33:30;;;;;;;11.17;5.60;;;7.10;56.90;;;;;;6192521;28;20976;-67
2021/12/18 13:36:47;;;;;;;9.47;4.73;;;7.10;57.00;;;;;;6197320;28;20216;-67
2021/12/18 13:39:49;;;;;;;7.07;4.37;;;6.80;53.90;;;;;;6216615;28;20203;-67
2021/12/18 13:43:21;;;;;;;8.67;4.40;;;6.80;55.60;;;;;;6213749;28;20331;-67
2021/12/18 13:46:28;;;;;;;6.33;4.03;;;6.70;54.00;;;;;;6186717;28;20207;-67
2021/12/18 13:49:29;;;;;;;6.87;5.37;;;6.80;54.80;;;;;;6203834;28;20199;-67
2021/12/18 13:52:39;;;;;;;6.93;5.13;;;6.70;54.10;;;;;;6211106;28;20277;-67
2021/12/18 13:55:43;;;;;;;12.53;5.17;;;6.70;57.60;;;;;;6231854;28;20199;-67
2021/12/18 13:58:46;;;;;;;6.57;5.07;;;6.60;54.30;;;;;;6216094;28;20222;-67
2021/12/18 14:01:48;;;;;;;6.00;5.27;;;6.70;56.40;;;;;;6215833;28;20249;-67
2021/12/18 14:04:49;;;;;;;8.10;5.97;;;6.60;55.40;;;;;;6212110;28;20197;-67
2021/12/18 14:07:52;;;;;;;6.10;5.50;;;6.30;55.30;;;;;;6213637;28;20198;-67
2021/12/18 14:10:53;;;;;;;8.60;5.30;;;6.30;54.20;;;;;;6211586;28;20216;-67
2021/12/18 14:14:12;;;;;;;8.03;6.03;;;6.20;55.90;;;;;;6225454;28;20199;-67
2021/12/18 14:17:16;;;;;;;9.60;6.33;;;6.20;57.00;;;;;;6202661;28;20198;-67
2021/12/18 14:20:17;;;;;;;6.63;5.47;;;6.10;57.80;;;;;;6198294;28;20224;-67
2021/12/18 14:23:18;;;;;;;8.73;6.70;;;6.20;59.00;;;;;;6215192;28;20281;-68
2021/12/18 14:26:23;;;;;;;5.90;5.17;;;6.10;59.60;;;;;;6214006;28;20204;-67
2021/12/18 14:29:24;;;;;;;6.37;5.33;;;6.00;60.80;;;;;;6229300;28;20195;-67
2021/12/18 14:32:25;;;;;;;7.57;5.43;;;5.90;60.20;;;;;;6233907;28;20182;-66
2021/12/18 14:35:26;;;;;;;8.67;5.20;;;5.80;61.70;;;;;;6217964;28;20213;-65
2021/12/18 14:38:27;;;;;;;6.37;5.13;;;5.70;61.00;;;;;;6211778;28;20197;-66
2021/12/18 14:41:29;;;;;;;10.53;7.37;;;5.60;63.10;;;;;;6210030;28;20206;-68
2021/12/18 14:44:32;;;;;;;9.20;7.10;;;5.40;64.20;;;;;;6198864;28;20209;-65
2021/12/18 14:47:43;;;;;;;12.77;6.40;;;5.40;62.10;;;;;;6228148;28;20251;-65
2021/12/18 14:50:46;;;;;;;6.77;5.90;;;5.20;64.10;;;;;;6248910;28;20221;-66
2021/12/18 14:53:58;;;;;;;7.30;5.87;;;5.10;62.80;;;;;;6178355;28;20274;-66
2021/12/18 14:57:34;;;;;;;13.57;8.53;;;5.00;66.10;;;;;;6237292;28;20198;-65
2021/12/18 15:00:50;;;;;;;15.77;9.80;;;4.90;65.60;;;;;;6110282;28;20241;-66
2021/12/18 15:03:56;;;;;;;9.70;7.20;;;4.80;62.90;;;;;;6219115;28;20229;-69
2021/12/18 15:06:57;;;;;;;9.00;5.83;;;4.80;62.70;;;;;;6194780;28;20561;-67
2021/12/18 15:09:58;;;;;;;7.23;5.63;;;4.70;63.30;;;;;;6223791;28;20222;-68
2021/12/18 15:13:14;;;;;;;11.07;6.83;;;4.60;65.80;;;;;;6176206;28;20260;-66
2021/12/18 15:16:29;;;;;;;6.43;5.47;;;4.50;65.30;;;;;;6164038;28;20208;-68
2021/12/18 15:19:39;;;;;;;7.90;5.87;;;4.40;65.90;;;;;;6185485;28;20194;-67
2021/12/18 15:22:40;;;;;;;8.47;5.80;;;4.30;65.70;;;;;;6184479;28;20172;-68
2021/12/18 15:25:41;;;;;;;11.47;6.67;;;4.20;66.80;;;;;;6184805;28;20253;-68
2021/12/18 15:28:42;;;;;;;10.67;7.50;;;4.10;66.70;;;;;;6176293;28;20198;-65
2021/12/18 15:31:43;;;;;;;17.80;9.93;;;4.00;68.70;;;;;;6176193;28;20222;-67
2021/12/18 15:34:48;;;;;;;17.17;9.73;;;3.80;70.70;;;;;;6198118;28;20225;-68
2021/12/18 15:37:49;;;;;;;15.13;9.93;;;3.80;68.90;;;;;;6216547;28;20200;-67
2021/12/18 15:40:51;;;;;;;13.87;8.50;;;3.80;69.50;;;;;;6168451;28;20195;-64
2021/12/18 15:43:52;;;;;;;10.57;7.30;;;3.70;69.20;;;;;;6183726;28;20247;-67
2021/12/18 15:46:54;;;;;;;14.40;9.87;;;3.60;69.60;;;;;;6203595;28;20206;-66
2021/12/18 15:49:54;;;;;;;22.90;13.73;;;3.70;69.20;;;;;;6183453;28;20222;-68
2021/12/18 15:52:55;;;;;;;17.17;11.13;;;3.50;70.80;;;;;;6199690;28;20192;-66
2021/12/18 15:55:57;;;;;;;14.40;8.77;;;3.50;70.10;;;;;;6199579;28;20274;-66
2021/12/18 15:58:58;;;;;;;11.20;8.00;;;3.50;69.60;;;;;;6189157;28;20249;-67
2021/12/18 16:01:59;;;;;;;9.10;6.83;;;3.50;70.10;;;;;;6247359;28;20232;-69
2021/12/18 16:05:00;;;;;;;12.23;6.87;;;3.30;70.00;;;;;;6209396;28;20227;-68
2021/12/18 16:08:01;;;;;;;10.33;7.40;;;3.30;69.90;;;;;;6219233;28;20231;-70
2021/12/18 16:11:04;;;;;;;13.07;6.77;;;3.30;69.70;;;;;;6237053;28;20218;-70
2021/12/18 16:14:05;;;;;;;12.73;8.33;;;3.10;71.80;;;;;;6248448;28;20210;-67
2021/12/18 16:17:06;;;;;;;11.87;7.13;;;3.00;70.70;;;;;;6216349;28;20228;-69
2021/12/18 16:20:08;;;;;;;13.77;9.17;;;3.00;70.30;;;;;;6236628;28;20200;-68